Time;durP1;ratioP1;P1;durP2;ratioP2;P2;SDS_P1;SDS_P2;PMS_P1;PMS_P2;Temp;Humidity;BMP_temperature;BMP_pressure;BME280_temperature;BME280_humidity;BME280_pressure;Samples;Min_cycle;Max_cycle;Signal;HPM_P1;HPM_P2
2022/11/17 00:03:33;;;;;;;28.30;13.43;;;;;;;4.99;94.09;99747.19;10416109;28;20037;-73
2022/11/17 00:08:34;;;;;;;27.92;15.23;;;;;;;5.04;95.04;99744.13;10415857;28;20513;-74
2022/11/17 00:24:15;;;;;;;38.33;17.60;;;;;;;4.90;95.75;99705.97;10416166;28;20095;-73
2022/11/17 00:29:16;;;;;;;38.15;18.30;;;;;;;4.95;96.06;99714.25;10414571;28;20068;-73
2022/11/17 00:34:22;;;;;;;33.45;18.13;;;;;;;5.09;97.10;99720.03;10414935;28;20547;-73
2022/11/17 00:39:23;;;;;;;35.33;17.60;;;;;;;5.07;96.70;99716.69;10414216;28;20405;-74
2022/11/17 00:44:25;;;;;;;31.83;17.13;;;;;;;5.04;97.16;99705.47;10414083;28;20037;-73
2022/11/17 00:49:26;;;;;;;32.55;16.85;;;;;;;5.26;96.46;99714.78;10414951;28;20045;-74
2022/11/17 00:54:27;;;;;;;39.85;16.27;;;;;;;5.11;96.19;99712.78;10413422;28;20128;-74
2022/11/17 00:59:28;;;;;;;28.58;13.93;;;;;;;4.72;96.48;99649.84;10414716;28;20135;-74
2022/11/17 01:04:29;;;;;;;52.50;18.08;;;;;;;5.25;96.49;99743.88;10413261;28;20628;-74
2022/11/17 01:09:29;;;;;;;25.80;14.45;;;;;;;5.40;96.78;99765.28;10413590;28;20168;-74
2022/11/17 01:14:31;;;;;;;37.92;17.50;;;;;;;4.87;96.09;99690.47;10412901;28;20577;-73
2022/11/17 01:19:32;;;;;;;38.78;17.42;;;;;;;5.41;97.39;99780.91;10413448;28;20191;-74
2022/11/17 01:24:33;;;;;;;34.55;17.88;;;;;;;4.78;96.97;99692.19;10413310;28;20179;-74
2022/11/17 01:29:34;;;;;;;38.28;18.42;;;;;;;5.29;97.26;99774.19;10413335;28;20045;-73
2022/11/17 01:34:35;;;;;;;37.42;18.58;;;;;;;5.30;97.33;99786.41;10412312;28;20061;-74
2022/11/17 01:39:35;;;;;;;45.67;20.00;;;;;;;4.78;97.51;99704.50;10413103;28;20045;-74
2022/11/17 01:44:59;;;;;;;46.25;21.52;;;;;;;5.33;99.32;99788.75;10413029;28;20037;-74
2022/11/17 01:50:06;;;;;;;46.87;19.93;;;;;;;5.32;99.02;99784.44;10412436;28;20860;-73
2022/11/17 01:55:09;;;;;;;46.17;20.27;;;;;;;5.24;98.15;99771.19;10412221;28;20299;-74
2022/11/17 02:00:11;;;;;;;41.60;19.80;;;;;;;5.22;98.83;99767.88;10412928;28;20040;-74
2022/11/17 02:05:20;;;;;;;39.80;20.10;;;;;;;5.22;99.71;99768.69;10412565;28;20337;-73
2022/11/17 02:10:21;;;;;;;45.00;19.90;;;;;;;5.13;98.75;99760.88;10412418;28;20056;-73
2022/11/17 02:15:23;;;;;;;37.85;18.40;;;;;;;5.14;98.66;99752.81;10412398;28;20048;-74
2022/11/17 02:20:57;;;;;;;33.97;18.15;;;;;;;5.43;100.00;99791.31;10412435;28;20056;-74
2022/11/17 02:26:03;;;;;;;;;;;;;;;5.53;100.00;99796.50;10412659;28;20457;-74
2022/11/17 02:31:38;;;;;;;45.92;17.85;;;;;;;5.53;100.00;99785.97;10411972;28;19921;-74
2022/11/17 02:36:55;;;;;;;31.73;16.77;;;;;;;5.52;99.55;99771.16;10411248;28;20456;-74
2022/11/17 02:42:15;;;;;;;36.22;17.77;;;;;;;5.14;99.74;99688.78;10416831;28;20132;-74
2022/11/17 02:47:29;;;;;;;37.03;16.00;;;;;;;5.68;99.74;99764.25;10418643;28;20414;-74
2022/11/17 02:52:30;;;;;;;36.88;15.88;;;;;;;5.63;98.81;99766.50;10416879;28;20041;-74
2022/11/17 02:57:33;;;;;;;33.88;14.88;;;;;;;5.68;98.59;99763.38;10416295;28;20405;-74
2022/11/17 03:02:59;;;;;;;37.92;16.55;;;;;;;4.37;98.91;99538.34;10416259;28;20076;-74
2022/11/17 03:08:34;;;;;;;29.00;15.30;;;;;;;5.82;99.14;99754.13;10415001;28;20132;-74
2022/11/17 03:14:18;;;;;;;23.90;14.30;;;;;;;5.92;99.33;99776.81;10418337;28;20033;-73
2022/11/17 03:19:25;;;;;;;;;;;;;;;5.97;98.79;99773.75;10416192;28;20408;-74
2022/11/17 03:24:32;;;;;;;26.50;14.48;;;;;;;5.80;97.89;99782.44;10411082;28;19921;-74
2022/11/17 03:29:37;;;;;;;29.92;13.93;;;;;;;5.78;98.63;99777.34;10417425;28;20045;-73
2022/11/17 03:34:45;;;;;;;33.85;15.93;;;;;;;5.76;98.27;99779.28;10417536;28;20555;-74
2022/11/17 03:39:51;;;;;;;40.20;15.15;;;;;;;5.74;98.54;99765.41;10416655;28;20463;-73
2022/11/17 03:45:10;;;;;;;26.58;15.18;;;;;;;4.84;99.26;99614.44;10416929;28;20037;-73
2022/11/17 03:50:20;;;;;;;30.35;14.45;;;;;;;5.58;99.20;99760.00;10416688;28;20038;-74
2022/11/17 03:55:28;;;;;;;36.42;16.50;;;;;;;5.56;99.49;99764.59;10416539;28;20045;-73
2022/11/17 04:00:29;;;;;;;40.55;16.73;;;;;;;5.41;98.73;99751.09;10416510;28;20114;-73
2022/11/17 04:05:30;;;;;;;40.85;18.27;;;;;;;5.08;98.97;99723.59;10415654;28;20037;-74
2022/11/17 04:15:54;;;;;;;39.55;16.60;;;;;;;5.15;99.97;99753.66;10415984;28;20046;-73
2022/11/17 04:15:57;;;;;;;52.75;18.45;;;;;;;4.55;99.76;99657.56;10416066;28;20037;-73
2022/11/17 04:20:58;;;;;;;40.67;18.80;;;;;;;4.89;100.00;99714.84;10415339;28;20041;-73
2022/11/17 04:31:21;;;;;;;37.22;17.27;;;;;;;4.93;100.00;99710.13;10412422;28;20054;-72
2022/11/17 04:36:27;;;;;;;31.00;16.90;;;;;;;5.06;100.00;99725.56;10408698;28;20071;-73
2022/11/17 04:46:48;;;;;;;58.25;31.77;;;;;;;5.52;100.00;99740.38;10408832;28;20053;-72
2022/11/17 04:51:50;;;;;;;34.63;22.17;;;;;;;5.66;100.00;99737.22;10418254;28;20061;-74
2022/11/17 04:56:53;;;;;;;44.22;26.50;;;;;;;5.74;100.00;99754.88;10409090;28;20049;-74
2022/11/17 05:01:53;;;;;;;54.28;18.95;;;;;;;5.80;100.00;99741.09;10410118;28;20068;-71
2022/11/17 05:06:54;;;;;;;54.13;26.38;;;;;;;5.96;100.00;99742.25;10408141;28;20170;-73
2022/11/17 05:17:14;;;;;;;30.42;14.43;;;;;;;6.15;100.00;99727.06;10411466;28;20076;-73
2022/11/17 05:27:36;;;;;;;24.65;13.45;;;;;;;6.49;100.00;99717.53;10410497;28;20533;-70
2022/11/17 05:32:37;;;;;;;20.50;11.45;;;;;;;6.94;100.00;99762.16;10410759;28;20061;-72
2022/11/17 05:37:38;;;;;;;28.42;14.13;;;;;;;7.02;100.00;99772.72;10410906;28;20061;-70
2022/11/17 05:42:39;;;;;;;33.75;17.23;;;;;;;6.44;100.00;99719.84;10410738;28;20044;-74
2022/11/17 05:47:39;;;;;;;31.42;17.45;;;;;;;6.61;100.00;99771.69;10409513;28;20045;-75
2022/11/17 05:52:40;;;;;;;30.10;15.35;;;;;;;6.63;100.00;99782.94;10409545;28;20057;-75
2022/11/17 05:57:42;;;;;;;27.15;16.27;;;;;;;6.07;100.00;99673.44;10408027;28;20051;-73
2022/11/17 06:02:49;;;;;;;31.67;17.75;;;;;;;6.77;100.00;99769.16;10407536;28;20555;-74
2022/11/17 06:07:53;;;;;;;30.40;16.58;;;;;;;7.19;100.00;99792.13;10404678;28;20045;-76
2022/11/17 06:12:54;;;;;;;;;;;;;;;7.40;100.00;99812.00;10405445;28;20540;-74
2022/11/17 06:18:21;;;;;;;34.15;18.80;;;;;;;7.38;100.00;99806.88;10412484;28;19943;-75
2022/11/17 06:23:25;;;;;;;37.42;19.27;;;;;;;7.09;100.00;99757.09;10412173;28;20518;-75
2022/11/17 06:28:27;;;;;;;30.63;18.48;;;;;;;7.32;100.00;99771.34;10412563;28;20039;-74
2022/11/17 06:33:30;;;;;;;36.72;19.13;;;;;;;7.50;100.00;99795.00;10412052;28;20053;-76
2022/11/17 06:38:33;;;;;;;40.45;18.52;;;;;;;7.57;100.00;99791.72;10411943;28;20122;-75
2022/11/17 06:43:33;;;;;;;35.33;18.65;;;;;;;7.53;100.00;99773.53;10416162;28;20127;-75
2022/11/17 06:48:34;;;;;;;29.02;17.92;;;;;;;7.62;100.00;99769.09;10416371;28;20513;-74
2022/11/17 06:53:35;;;;;;;30.70;18.63;;;;;;;7.29;100.00;99718.81;10450769;28;20519;-75
2022/11/17 06:58:40;;;;;;;36.53;18.52;;;;;;;7.78;100.00;99786.81;10458445;28;20037;-75
2022/11/17 07:03:44;;;;;;;31.35;18.05;;;;;;;7.78;100.00;99758.56;10455996;28;20396;-74
2022/11/17 07:08:45;;;;;;;30.50;19.15;;;;;;;7.91;100.00;99744.00;10456716;28;20098;-75
2022/11/17 07:13:46;;;;;;;33.70;17.67;;;;;;;8.00;100.00;99743.84;10456227;28;20095;-76
2022/11/17 07:18:46;;;;;;;30.48;19.48;;;;;;;8.24;100.00;99771.28;10458507;28;20131;-75
2022/11/17 07:23:47;;;;;;;35.38;20.40;;;;;;;8.09;99.95;99775.59;10456138;28;20564;-75
2022/11/17 07:28:48;;;;;;;31.00;18.67;;;;;;;7.72;100.00;99746.00;10455780;28;20040;-76
2022/11/17 07:33:49;;;;;;;40.90;21.17;;;;;;;7.93;100.00;99787.81;10456732;28;20145;-75
2022/11/17 07:38:50;;;;;;;39.58;19.58;;;;;;;8.10;100.00;99803.69;10456634;28;20174;-75
2022/11/17 07:43:51;;;;;;;30.23;18.17;;;;;;;8.24;100.00;99769.44;10456018;28;20370;-75
2022/11/17 07:48:55;;;;;;;33.15;17.85;;;;;;;8.48;100.00;99746.63;10431919;28;20053;-75
2022/11/17 07:53:56;;;;;;;30.00;18.00;;;;;;;8.66;100.00;99754.34;10413065;28;20053;-75
2022/11/17 07:58:56;;;;;;;32.80;19.70;;;;;;;8.74;100.00;99761.47;10414654;28;20041;-74
2022/11/17 08:03:57;;;;;;;42.47;21.20;;;;;;;8.62;99.71;99685.03;10413269;28;20049;-75
2022/11/17 08:08:58;;;;;;;40.03;22.55;;;;;;;8.77;99.21;99702.84;10413751;28;20044;-75
2022/11/17 08:13:59;;;;;;;45.33;28.15;;;;;;;9.27;98.61;99762.53;10413483;28;20042;-75
2022/11/17 08:19:00;;;;;;;41.30;23.83;;;;;;;9.15;98.71;99740.91;10414362;28;20124;-75
2022/11/17 08:24:01;;;;;;;38.38;22.27;;;;;;;9.33;98.54;99756.53;10413227;28;20243;-75
2022/11/17 08:29:02;;;;;;;41.72;21.48;;;;;;;9.73;98.01;99741.38;10413182;28;20553;-75
2022/11/17 08:45:19;;;;;;;29.10;17.42;;;;;;;9.29;96.62;99654.53;11395462;23;20052;-76
2022/11/17 08:50:19;;;;;;;32.33;17.40;;;;;;;9.23;96.67;99631.38;10170570;29;20126;-73
2022/11/17 08:55:20;;;;;;;25.98;16.80;;;;;;;9.71;96.02;99682.38;10172354;29;20126;-74
2022/11/17 09:00:21;;;;;;;33.20;17.23;;;;;;;9.92;95.67;99693.13;10172043;29;20068;-74
2022/11/17 09:05:23;;;;;;;31.40;16.13;;;;;;;9.68;95.13;99649.09;10172438;29;20040;-74
2022/11/17 09:10:24;;;;;;;24.92;14.75;;;;;;;10.07;94.40;99685.19;10171578;29;20096;-74
2022/11/17 09:15:25;;;;;;;21.60;13.25;;;;;;;10.15;94.58;99660.44;10169910;29;20038;-74
2022/11/17 09:20:26;;;;;;;29.35;15.40;;;;;;;10.26;93.57;99652.00;10170073;29;20120;-75
2022/11/17 09:25:28;;;;;;;23.73;14.50;;;;;;;10.37;93.88;99664.03;10170802;29;20492;-74
2022/11/17 09:30:29;;;;;;;23.52;13.77;;;;;;;10.47;93.85;99673.38;10170215;29;20047;-75
2022/11/17 09:35:30;;;;;;;24.90;14.65;;;;;;;10.29;93.89;99662.31;10170774;29;20556;-74
2022/11/17 09:40:30;;;;;;;15.45;10.43;;;;;;;10.20;94.12;99648.25;10159070;29;20075;-75
2022/11/17 09:45:36;;;;;;;38.80;23.23;;;;;;;10.16;94.48;99638.19;10164791;29;20480;-75
2022/11/17 09:50:39;;;;;;;22.83;14.75;;;;;;;9.66;93.99;99541.53;10210547;29;20099;-74
2022/11/17 09:55:43;;;;;;;24.08;16.88;;;;;;;10.09;94.50;99619.50;10217157;29;20384;-75
2022/11/17 10:00:51;;;;;;;23.38;14.40;;;;;;;10.22;94.84;99653.38;10218561;29;20043;-73
2022/11/17 10:05:53;;;;;;;24.60;14.90;;;;;;;10.33;94.96;99668.06;10216474;29;20059;-75
2022/11/17 10:10:53;;;;;;;19.75;13.65;;;;;;;10.24;94.34;99644.22;10218428;29;20035;-75
2022/11/17 10:16:01;;;;;;;18.73;13.75;;;;;;;10.25;94.40;99635.25;10218547;29;20476;-73
2022/11/17 10:21:04;;;;;;;27.20;14.90;;;;;;;10.05;94.13;99591.66;10217882;29;20491;-74
2022/11/17 10:26:10;;;;;;;22.55;14.57;;;;;;;10.51;93.50;99653.41;10202889;29;20039;-74
2022/11/17 10:31:12;;;;;;;22.48;13.75;;;;;;;10.69;93.59;99673.44;10218447;29;20126;-74
2022/11/17 10:36:24;;;;;;;22.20;13.90;;;;;;;10.39;92.59;99614.22;10218298;29;20042;-74
2022/11/17 10:41:34;;;;;;;26.08;12.00;;;;;;;10.63;92.51;99647.63;10233258;29;20503;-74
2022/11/17 10:46:59;;;;;;;23.17;12.43;;;;;;;10.84;92.49;99650.34;10218485;29;20056;-73
2022/11/17 10:52:22;;;;;;;19.00;10.45;;;;;;;10.94;91.29;99624.28;10217997;29;20182;-73
2022/11/17 10:57:26;;;;;;;19.88;9.85;;;;;;;11.15;90.62;99651.88;10218080;29;20490;-73
2022/11/17 11:02:29;;;;;;;16.42;9.63;;;;;;;11.12;90.25;99658.41;10217314;29;20488;-74
2022/11/17 11:07:30;;;;;;;17.57;9.30;;;;;;;11.11;90.53;99661.25;10217756;29;20369;-74
2022/11/17 11:12:46;;;;;;;18.58;12.27;;;;;;;10.76;89.84;99599.13;10217065;29;20035;-73
2022/11/17 11:17:46;;;;;;;17.25;10.18;;;;;;;11.09;90.03;99681.88;10217042;29;20067;-73
2022/11/17 11:23:08;;;;;;;11.90;9.18;;;;;;;11.19;90.21;99679.75;10217289;29;20074;-73
2022/11/17 11:28:27;;;;;;;17.63;11.55;;;;;;;10.96;90.49;99682.56;10217474;29;20428;-73
2022/11/17 11:33:34;;;;;;;18.63;10.82;;;;;;;10.70;91.43;99675.91;10217158;29;20472;-73
2022/11/17 11:38:56;;;;;;;20.88;12.50;;;;;;;10.13;92.54;99615.47;10216861;29;20039;-74
2022/11/17 11:44:38;;;;;;;28.52;14.35;;;;;;;10.20;93.32;99627.03;10215973;29;20479;-74
2022/11/17 11:49:47;;;;;;;29.63;19.48;;;;;;;10.40;92.63;99672.44;10215647;29;20066;-73
2022/11/17 11:54:56;;;;;;;29.98;20.70;;;;;;;10.45;92.68;99662.09;10215527;29;20425;-73
2022/11/17 12:00:06;;;;;;;19.63;9.85;;;;;;;10.53;92.58;99669.16;10215342;29;20043;-74
2022/11/17 12:05:25;;;;;;;16.33;9.35;;;;;;;10.48;93.83;99698.91;10215589;29;20472;-73
2022/11/17 12:10:41;;;;;;;14.10;8.45;;;;;;;10.41;93.18;99690.03;10215362;29;20036;-75
2022/11/17 12:15:42;;;;;;;13.65;8.30;;;;;;;10.42;93.27;99672.28;10214876;29;20115;-74
2022/11/17 12:20:55;;;;;;;10.15;7.15;;;;;;;10.28;93.17;99665.94;10215379;29;20123;-73
2022/11/17 12:25:58;;;;;;;12.65;7.70;;;;;;;10.02;93.79;99683.09;10213764;29;20070;-73
2022/11/17 12:31:06;;;;;;;15.13;9.13;;;;;;;9.79;96.04;99677.00;10214743;29;20400;-73
2022/11/17 12:36:28;;;;;;;15.75;7.57;;;;;;;9.46;98.12;99656.06;10213546;29;20043;-74
2022/11/17 12:41:47;;;;;;;17.55;8.85;;;;;;;9.08;98.55;99616.25;10214124;29;20047;-73
2022/11/17 12:46:58;;;;;;;32.15;9.05;;;;;;;9.19;97.87;99646.00;10207609;29;20052;-73
2022/11/17 12:52:06;;;;;;;29.92;9.75;;;;;;;9.29;98.03;99657.19;10212661;29;20126;-73
2022/11/17 12:57:17;;;;;;;48.47;23.58;;;;;;;9.24;99.42;99673.59;10208687;29;20572;-73
2022/11/17 13:02:45;;;;;;;20.48;11.20;;;;;;;9.26;100.00;99700.75;10208063;29;20043;-72
2022/11/17 13:07:46;;;;;;;17.58;10.80;;;;;;;9.02;99.00;99674.41;10206142;29;20043;-73
2022/11/17 13:12:46;;;;;;;16.23;9.13;;;;;;;9.07;99.48;99688.78;10200733;29;20040;-73
2022/11/17 13:17:48;;;;;;;21.05;10.45;;;;;;;8.91;99.58;99671.16;10205054;29;20043;-73
2022/11/17 13:23:00;;;;;;;17.38;8.98;;;;;;;8.95;100.00;99692.84;10206795;29;20079;-74
2022/11/17 13:28:01;;;;;;;19.83;11.75;;;;;;;8.85;100.00;99692.19;10205140;29;20028;-73
2022/11/17 13:33:02;;;;;;;16.50;10.25;;;;;;;8.93;100.00;99716.00;10205730;29;20044;-73
2022/11/17 13:38:14;;;;;;;14.43;8.55;;;;;;;8.89;100.00;99725.31;10207074;29;20107;-73
2022/11/17 13:43:19;;;;;;;19.45;9.07;;;;;;;8.73;100.00;99702.34;10189189;29;20039;-73
2022/11/17 13:48:34;;;;;;;18.40;10.95;;;;;;;8.83;100.00;99702.16;10211042;29;20087;-73
2022/11/17 13:53:34;;;;;;;32.15;15.77;;;;;;;8.73;100.00;99705.00;10212381;29;20036;-73
2022/11/17 14:05:24;;;;;;;70.72;35.72;;;;;;;7.94;100.00;99569.94;10170063;29;20485;-72
2022/11/17 14:10:26;;;;;;;106.95;47.75;;;;;;;8.51;100.00;99681.94;10158947;29;20040;-73
2022/11/17 14:15:58;;;;;;;138.90;62.58;;;;;;;8.64;100.00;99709.50;10171080;29;20028;-72
2022/11/17 14:21:14;;;;;;;80.32;36.22;;;;;;;8.48;100.00;99709.56;10172111;29;20119;-72
2022/11/17 14:26:22;;;;;;;30.42;15.02;;;;;;;8.35;100.00;99733.88;10171980;29;20062;-73
2022/11/17 14:31:23;;;;;;;48.40;16.33;;;;;;;8.12;100.00;99731.09;10172455;29;20033;-72
2022/11/17 14:42:42;;;;;;;199.82;85.63;;;;;;;8.08;100.00;99743.00;10177813;29;20396;-73
2022/11/17 14:47:43;;;;;;;127.75;53.65;;;;;;;8.11;100.00;99744.50;10179265;29;20516;-73
2022/11/17 14:52:44;;;;;;;136.48;54.78;;;;;;;7.58;100.00;99659.41;10179080;29;20075;-73
2022/11/17 14:57:46;;;;;;;144.02;61.70;;;;;;;8.04;100.00;99736.38;10178379;29;20032;-72
2022/11/17 15:02:47;;;;;;;111.63;45.45;;;;;;;7.65;100.00;99692.09;10161068;29;20075;-72
2022/11/17 15:07:48;;;;;;;80.22;39.25;;;;;;;7.91;100.00;99742.19;10177880;29;20088;-73
2022/11/17 15:12:49;;;;;;;98.72;41.85;;;;;;;7.96;100.00;99742.53;10160671;29;20540;-73
2022/11/17 15:17:50;;;;;;;63.30;29.92;;;;;;;7.99;100.00;99747.47;10177626;29;20056;-72
2022/11/17 15:22:50;;;;;;;46.90;21.67;;;;;;;8.11;100.00;99760.38;10178155;29;20490;-72
2022/11/17 15:27:53;;;;;;;36.58;19.17;;;;;;;8.10;100.00;99742.84;10177702;29;20068;-72
2022/11/17 15:33:09;;;;;;;36.58;15.13;;;;;;;8.16;100.00;99750.91;10159952;29;20416;-72
2022/11/17 15:38:09;;;;;;;19.05;12.55;;;;;;;8.05;100.00;99743.34;10135338;29;20037;-72
2022/11/17 15:43:10;;;;;;;20.52;11.75;;;;;;;7.66;100.00;99683.19;10175319;29;20048;-73
2022/11/17 15:48:11;;;;;;;16.38;11.45;;;;;;;8.04;100.00;99752.25;10174386;29;20500;-73
2022/11/17 15:53:12;;;;;;;37.25;11.52;;;;;;;8.01;100.00;99755.22;10168985;29;20033;-72
2022/11/17 15:58:12;;;;;;;24.27;11.93;;;;;;;7.98;100.00;99745.00;10159539;29;20039;-73
2022/11/17 16:03:13;;;;;;;31.10;11.63;;;;;;;7.85;100.00;99728.81;10164839;29;20088;-73
2022/11/17 16:08:14;;;;;;;28.27;11.40;;;;;;;7.89;100.00;99730.13;10167907;29;20365;-75
2022/11/17 16:13:14;;;;;;;19.08;11.05;;;;;;;7.90;100.00;99747.66;10170507;29;20095;-72
2022/11/17 16:18:15;;;;;;;28.13;14.25;;;;;;;7.99;100.00;99744.00;10164009;29;20040;-74
2022/11/17 16:23:16;;;;;;;29.77;14.55;;;;;;;7.95;100.00;99734.75;10170733;29;20122;-73
2022/11/17 16:28:17;;;;;;;29.30;13.23;;;;;;;7.55;100.00;99678.25;10171336;29;20051;-74
2022/11/17 16:33:18;;;;;;;34.08;17.42;;;;;;;7.79;100.00;99725.00;10169157;29;20488;-74
2022/11/17 16:38:19;;;;;;;16.20;11.32;;;;;;;7.85;100.00;99723.50;10165845;29;20032;-73
2022/11/17 16:43:19;;;;;;;16.27;11.35;;;;;;;7.67;100.00;99719.22;10163020;29;20515;-73
2022/11/17 16:48:20;;;;;;;49.30;13.43;;;;;;;7.65;100.00;99718.53;10166957;29;20445;-74
2022/11/17 16:53:21;;;;;;;44.42;12.50;;;;;;;7.68;100.00;99723.50;10163042;29;20070;-73
2022/11/17 16:58:21;;;;;;;56.17;14.18;;;;;;;7.44;100.00;99687.31;10166053;29;20032;-72
2022/11/17 17:03:22;;;;;;;45.08;11.48;;;;;;;7.66;100.00;99736.06;10167830;29;20443;-73
2022/11/17 17:08:25;;;;;;;16.13;9.43;;;;;;;7.56;100.00;99716.88;10163860;29;20119;-73
2022/11/17 17:13:26;;;;;;;28.38;10.65;;;;;;;7.63;100.00;99741.69;10163615;29;20431;-73
2022/11/17 17:18:27;;;;;;;49.15;10.93;;;;;;;7.17;100.00;99662.00;10164752;29;20031;-74
2022/11/17 17:23:28;;;;;;;54.35;11.45;;;;;;;7.61;100.00;99737.56;10167055;29;20036;-74
2022/11/17 17:28:33;;;;;;;60.97;11.65;;;;;;;7.55;100.00;99736.38;10165790;29;20071;-74
2022/11/17 17:33:35;;;;;;;59.97;12.13;;;;;;;7.01;100.00;99657.53;10166844;29;20074;-73
2022/11/17 17:38:37;;;;;;;77.05;15.00;;;;;;;7.45;100.00;99743.63;10164719;29;20088;-73
2022/11/17 17:43:41;;;;;;;85.30;12.50;;;;;;;7.40;100.00;99743.28;10166368;29;20123;-73
2022/11/17 17:48:43;;;;;;;;;;;;;;;7.49;100.00;99737.84;10165530;29;20055;-73
2022/11/17 17:53:44;;;;;;;54.90;12.73;;;;;;;6.99;100.00;99663.94;10164421;29;19922;-73
2022/11/17 17:58:47;;;;;;;51.85;11.95;;;;;;;7.35;100.00;99716.53;10160391;29;20024;-73
2022/11/17 18:03:50;;;;;;;40.25;10.23;;;;;;;6.43;100.00;99573.06;10159620;29;20099;-73
2022/11/17 18:08:50;;;;;;;47.97;8.13;;;;;;;7.17;100.00;99706.09;10154554;29;20484;-73
2022/11/17 18:13:52;;;;;;;46.20;7.80;;;;;;;7.19;100.00;99706.75;10178318;29;20036;-73
2022/11/17 18:19:01;;;;;;;49.85;7.35;;;;;;;6.99;100.00;99669.22;10179600;29;20047;-73
2022/11/17 18:24:11;;;;;;;77.47;8.65;;;;;;;7.14;100.00;99687.91;10172328;29;20046;-73
2022/11/17 18:29:16;;;;;;;58.38;7.53;;;;;;;6.60;100.00;99619.63;10168424;29;20421;-73
2022/11/17 18:34:22;;;;;;;31.55;5.55;;;;;;;7.01;100.00;99701.59;10165115;29;20043;-73
2022/11/17 18:39:56;;;;;;;51.78;5.05;;;;;;;7.07;100.00;99687.75;10165967;29;20040;-73
2022/11/17 18:44:57;;;;;;;52.13;6.65;;;;;;;6.79;100.00;99652.81;10171660;29;20051;-73
2022/11/17 18:49:57;;;;;;;45.40;6.55;;;;;;;6.80;100.00;99654.50;10177350;29;20127;-73
2022/11/17 18:54:58;;;;;;;44.17;7.22;;;;;;;6.17;100.00;99576.59;10164891;29;20115;-73
2022/11/17 18:59:59;;;;;;;35.83;8.45;;;;;;;6.54;100.00;99638.72;10158560;29;20040;-72
2022/11/17 19:05:00;;;;;;;70.55;5.95;;;;;;;6.75;100.00;99676.09;10172130;29;20044;-72
2022/11/17 19:10:00;;;;;;;62.22;8.27;;;;;;;6.60;100.00;99649.47;10177172;29;20048;-72
2022/11/17 19:15:01;;;;;;;44.95;7.13;;;;;;;6.66;100.00;99663.03;10177230;29;20060;-73
2022/11/17 19:20:02;;;;;;;60.67;6.05;;;;;;;6.55;100.00;99669.41;10176879;29;20060;-72
2022/11/17 19:25:03;;;;;;;21.13;5.25;;;;;;;6.04;100.00;99573.56;10158864;29;20507;-72
2022/11/17 19:30:07;;;;;;;34.40;7.53;;;;;;;6.08;100.00;99564.38;10169744;29;20495;-72
2022/11/17 19:35:07;;;;;;;79.50;8.68;;;;;;;6.33;100.00;99618.84;10176823;29;20044;-73
2022/11/17 19:40:09;;;;;;;63.05;7.43;;;;;;;6.54;100.00;99638.72;10177024;29;20489;-73
2022/11/17 19:45:09;;;;;;;45.30;7.85;;;;;;;6.60;100.00;99638.91;10177570;29;20048;-73
2022/11/17 19:50:10;;;;;;;75.10;7.28;;;;;;;6.59;100.00;99626.72;10176056;29;20032;-73
2022/11/17 20:01:33;;;;;;;87.25;7.70;;;;;;;6.48;100.00;99623.53;10175214;29;20039;-73
2022/11/17 20:06:36;;;;;;;61.38;7.90;;;;;;;6.42;100.00;99616.25;10176394;29;20040;-73
2022/11/17 20:11:37;;;;;;;20.30;4.77;;;;;;;6.00;100.00;99545.88;10176292;29;20475;-72
2022/11/17 20:16:38;;;;;;;46.28;5.28;;;;;;;6.33;100.00;99616.22;10176116;29;20123;-72
2022/11/17 20:21:39;;;;;;;60.83;8.00;;;;;;;6.34;100.00;99615.25;10175311;29;20063;-72
2022/11/17 20:26:41;;;;;;;45.83;6.30;;;;;;;5.78;100.00;99518.22;10175268;29;20425;-73
2022/11/17 20:31:42;;;;;;;88.45;5.88;;;;;;;6.20;100.00;99597.38;10174358;29;20047;-73
2022/11/17 20:36:43;;;;;;;17.33;4.30;;;;;;;6.12;100.00;99610.53;10174929;29;20038;-73
2022/11/17 20:41:44;;;;;;;33.05;5.00;;;;;;;5.52;100.00;99536.69;10175172;29;20056;-73
2022/11/17 20:46:44;;;;;;;56.63;5.38;;;;;;;5.46;100.00;99538.13;10174521;29;20100;-73
2022/11/17 20:51:51;;;;;;;161.65;8.05;;;;;;;5.92;100.00;99623.91;10174808;29;20055;-73
2022/11/17 20:56:52;;;;;;;72.13;5.95;;;;;;;5.96;100.00;99623.63;10173791;29;20027;-73
2022/11/17 21:01:53;;;;;;;60.67;5.68;;;;;;;5.97;100.00;99626.09;10174081;29;20091;-73
2022/11/17 21:06:53;;;;;;;65.18;7.18;;;;;;;5.75;100.00;99579.97;10174837;29;20500;-73
2022/11/17 21:12:26;;;;;;;86.20;6.40;;;;;;;6.07;100.00;99618.06;10173843;29;20043;-74
2022/11/17 21:22:48;;;;;;;80.00;7.03;;;;;;;5.50;100.00;99539.47;10172587;29;20060;-72
2022/11/17 21:27:49;;;;;;;69.82;6.22;;;;;;;5.99;100.00;99621.50;10173396;29;20446;-72
2022/11/17 21:32:50;;;;;;;24.88;6.22;;;;;;;6.03;100.00;99619.38;10172902;29;20111;-73
2022/11/17 21:37:51;;;;;;;35.97;6.57;;;;;;;5.91;100.00;99616.97;10171484;29;20091;-74
2022/11/17 21:42:51;;;;;;;60.47;6.68;;;;;;;5.86;100.00;99614.00;10173476;29;20096;-74
2022/11/17 21:47:53;;;;;;;34.00;7.18;;;;;;;5.67;100.00;99587.81;10173209;29;20577;-73
2022/11/17 21:52:53;;;;;;;23.85;7.07;;;;;;;5.88;100.00;99613.81;10172460;29;20393;-74
2022/11/17 21:57:55;;;;;;;15.57;7.30;;;;;;;5.69;100.00;99586.69;10172156;29;20047;-74
2022/11/17 22:02:55;;;;;;;43.80;7.55;;;;;;;5.88;100.00;99614.66;10172902;29;20213;-74
2022/11/17 22:07:57;;;;;;;26.63;6.72;;;;;;;5.67;100.00;99585.19;10173020;29;20196;-74
2022/11/17 22:12:58;;;;;;;28.85;7.65;;;;;;;5.88;100.00;99590.09;10172895;29;20527;-74
2022/11/17 22:17:59;;;;;;;20.95;7.20;;;;;;;5.93;100.00;99595.75;10172897;29;20176;-74
2022/11/17 22:22:59;;;;;;;34.20;8.32;;;;;;;5.52;100.00;99505.91;10172057;29;20043;-74
2022/11/17 22:28:00;;;;;;;14.52;6.88;;;;;;;5.86;100.00;99569.19;10172025;29;20036;-74
2022/11/17 22:33:01;;;;;;;19.27;6.80;;;;;;;5.78;100.00;99553.31;10173002;29;20040;-74
2022/11/17 22:38:02;;;;;;;66.18;8.02;;;;;;;5.67;100.00;99527.22;10172343;29;20028;-74
2022/11/17 22:43:03;;;;;;;36.60;8.30;;;;;;;4.71;100.00;99385.09;10171855;29;20080;-74
2022/11/17 22:48:06;;;;;;;63.33;7.70;;;;;;;5.55;100.00;99546.91;10172707;29;20057;-74
2022/11/17 22:53:06;;;;;;;51.03;7.25;;;;;;;5.46;100.00;99543.41;10200085;29;20036;-74
2022/11/17 22:58:07;;;;;;;61.78;9.57;;;;;;;5.58;100.00;99563.22;10198534;29;20411;-74
2022/11/17 23:09:05;;;;;;;33.65;7.30;;;;;;;5.32;100.00;99542.13;10218280;29;20031;-74
2022/11/17 23:14:23;;;;;;;54.17;7.65;;;;;;;5.42;100.00;99569.22;10200525;29;20122;-74
2022/11/17 23:19:24;;;;;;;70.32;8.52;;;;;;;5.41;100.00;99578.09;10217896;29;20028;-74
2022/11/17 23:24:25;;;;;;;19.65;6.93;;;;;;;5.32;100.00;99563.22;10182887;29;20043;-74
2022/11/17 23:29:26;;;;;;;33.10;7.85;;;;;;;4.79;100.00;99485.97;10177659;29;20043;-74
2022/11/17 23:34:27;;;;;;;61.58;9.65;;;;;;;5.10;100.00;99532.94;10177854;29;20028;-74
2022/11/17 23:39:28;;;;;;;96.30;9.93;;;;;;;4.99;100.00;99514.75;10177524;29;20497;-74
2022/11/17 23:44:29;;;;;;;50.25;8.40;;;;;;;5.23;100.00;99554.44;10176643;29;20055;-74
2022/11/17 23:49:30;;;;;;;67.65;8.77;;;;;;;5.22;100.00;99541.41;10178328;29;20123;-74
2022/11/17 23:54:31;;;;;;;52.22;8.65;;;;;;;5.24;100.00;99540.28;10174600;29;20123;-74
2022/11/17 23:59:31;;;;;;;71.00;9.13;;;;;;;4.69;100.00;99452.81;10176417;29;20385;-74
